Time;durP1;ratioP1;P1;durP2;ratioP2;P2;SDS_P1;SDS_P2;PMS_P1;PMS_P2;Temp;Humidity;BMP_temperature;BMP_pressure;BME280_temperature;BME280_humidity;BME280_pressure;Samples;Min_cycle;Max_cycle;Signal;HPM_P1;HPM_P2
2022/05/11 00:01:41;;;;;;;;;2.67;1.00;;;;;16.42;55.79;101244.53;5012785;28;9297;-65
2022/05/11 00:04:09;;;;;;;;;2.33;1.33;;;;;16.41;55.38;101238.28;5022247;28;9155;-61
2022/05/11 00:06:36;;;;;;;;;1.00;1.00;;;;;16.37;55.29;101241.66;5014220;28;9216;-63
2022/05/11 00:09:05;;;;;;;;;1.00;1.00;;;;;16.32;55.43;101231.44;5015472;28;9085;-64
2022/05/11 00:11:31;;;;;;;;;2.33;1.67;;;;;16.34;55.62;101236.66;5003253;28;9227;-65
2022/05/11 00:13:58;;;;;;;;;2.00;2.00;;;;;16.38;55.18;101230.56;5015737;28;9262;-60
2022/05/11 00:16:29;;;;;;;;;2.00;2.00;;;;;16.38;54.94;101232.47;5004235;28;9280;-64
2022/05/11 00:18:56;;;;;;;;;0.67;0.67;;;;;16.35;54.63;101233.72;5016100;28;9265;-65
2022/05/11 00:21:22;;;;;;;;;2.67;1.00;;;;;16.34;54.78;101237.50;5017481;28;9113;-62
2022/05/11 00:23:51;;;;;;;;;2.00;2.00;;;;;16.31;54.43;101236.03;5022432;28;9273;-63
2022/05/11 00:26:18;;;;;;;;;2.00;2.00;;;;;16.29;54.90;101235.44;5023972;28;9195;-64
2022/05/11 00:28:44;;;;;;;;;3.00;2.00;;;;;16.28;54.51;101219.34;5021445;28;9173;-68
2022/05/11 00:31:11;;;;;;;;;1.67;1.67;;;;;16.28;54.90;101222.06;5032520;28;9297;-65
2022/05/11 00:33:38;;;;;;;;;1.33;1.33;;;;;16.25;54.48;101223.38;5018405;28;9175;-65
2022/05/11 00:36:11;;;;;;;;;1.00;1.00;;;;;16.22;54.59;101217.53;5020595;28;9233;-64
2022/05/11 00:38:37;;;;;;;;;1.00;1.00;;;;;16.20;54.72;101215.03;5005193;28;9184;-64
2022/05/11 00:41:05;;;;;;;;;1.67;1.67;;;;;16.21;54.45;101219.44;5000929;28;9162;-65
2022/05/11 00:43:41;;;;;;;;;1.33;1.33;;;;;16.20;54.39;101219.63;5011745;28;9284;-65
2022/05/11 00:46:25;;;;;;;;;1.67;1.67;;;;;16.21;54.51;101210.47;5004981;28;9184;-66
2022/05/11 00:51:45;;;;;;;;;1.33;1.33;;;;;16.14;54.69;101199.66;5017229;28;9214;-64
2022/05/11 00:54:15;;;;;;;;;1.00;1.00;;;;;16.16;54.84;101204.84;5012906;28;9161;-64
2022/05/11 00:56:46;;;;;;;;;1.00;1.00;;;;;16.20;54.49;101197.91;4994143;28;9165;-64
2022/05/11 00:59:19;;;;;;;;;1.00;1.00;;;;;16.21;54.23;101203.13;5012131;28;9229;-65
2022/05/11 01:01:46;;;;;;;;;5.00;2.67;;;;;16.19;54.68;101197.09;5002089;28;9138;-64
2022/05/11 01:04:17;;;;;;;;;1.00;1.00;;;;;16.22;54.57;101193.09;5018191;28;9234;-65
2022/05/11 01:06:44;;;;;;;;;2.00;2.00;;;;;16.23;54.72;101189.31;5014957;28;9217;-65
2022/05/11 01:09:12;;;;;;;;;0.00;0.00;;;;;16.20;54.25;101192.47;5026266;28;9256;-65
2022/05/11 01:11:53;;;;;;;;;1.33;1.33;;;;;16.18;54.66;101184.56;5012835;28;9248;-65
2022/05/11 01:14:24;;;;;;;;;2.00;2.00;;;;;16.16;54.73;101186.66;5013072;28;9227;-63
2022/05/11 01:16:51;;;;;;;;;1.00;1.00;;;;;16.18;54.70;101181.84;5007586;28;9248;-65
2022/05/11 01:19:33;;;;;;;;;1.00;1.00;;;;;16.20;54.24;101174.28;5023086;28;9247;-65
2022/05/11 01:22:21;;;;;;;;;3.00;2.33;;;;;16.17;54.56;101174.75;5010393;28;9109;-64
2022/05/11 01:24:50;;;;;;;;;1.67;1.33;;;;;16.16;54.58;101167.66;5017998;28;9239;-67
2022/05/11 01:27:27;;;;;;;;;2.00;1.33;;;;;16.16;54.30;101175.78;5018050;28;9156;-64
2022/05/11 01:29:57;;;;;;;;;3.00;3.00;;;;;16.18;54.35;101170.97;5008361;28;9149;-66
2022/05/11 01:32:25;;;;;;;;;1.00;1.00;;;;;16.15;54.16;101160.56;5019685;28;9301;-65
2022/05/11 01:35:11;;;;;;;;;2.00;2.00;;;;;16.16;54.49;101151.34;5018837;28;9232;-64
2022/05/11 01:37:44;;;;;;;;;1.00;1.00;;;;;16.15;54.59;101155.13;5022226;28;9160;-64
2022/05/11 01:40:11;;;;;;;;;2.67;1.00;;;;;16.16;54.55;101151.34;5018836;28;9224;-63
2022/05/11 01:42:38;;;;;;;;;1.67;1.67;;;;;16.15;54.32;101157.00;5017858;28;9083;-63
2022/05/11 01:45:05;;;;;;;;;1.00;1.00;;;;;16.13;54.74;101154.53;5015753;28;9235;-63
2022/05/11 01:47:32;;;;;;;;;3.00;1.00;;;;;16.09;54.72;101155.22;5018375;28;9773;-64
2022/05/11 01:49:58;;;;;;;;;1.00;1.00;;;;;16.06;54.77;101160.00;5019626;28;9225;-64
2022/05/11 01:52:25;;;;;;;;;2.00;2.00;;;;;16.06;55.19;101154.59;5011926;28;9935;-64
2022/05/11 01:54:51;;;;;;;;;3.00;3.00;;;;;16.03;55.26;101155.03;5005449;28;9166;-64
2022/05/11 01:57:18;;;;;;;;;2.00;2.00;;;;;15.97;55.34;101145.06;4997432;28;9320;-64
2022/05/11 01:59:44;;;;;;;;;0.67;0.67;;;;;15.94;55.78;101147.38;5014696;28;9219;-65
2022/05/11 02:02:11;;;;;;;;;3.33;3.33;;;;;15.89;55.81;101144.53;5017002;28;9217;-64
2022/05/11 02:10:07;;;;;;;;;2.00;2.00;;;;;15.89;56.13;101148.06;5010365;28;9364;-66
2022/05/11 02:12:36;;;;;;;;;3.00;1.00;;;;;15.89;56.05;101152.66;5002713;28;9247;-65
2022/05/11 02:15:03;;;;;;;;;3.00;3.00;;;;;15.87;56.08;101152.03;5011222;28;9228;-63
2022/05/11 02:17:30;;;;;;;;;4.33;3.00;;;;;15.86;56.50;101151.22;5003550;28;9443;-61
2022/05/11 02:19:56;;;;;;;;;1.33;1.33;;;;;15.84;56.57;101150.63;5021383;28;9289;-64
2022/05/11 02:22:23;;;;;;;;;2.00;2.00;;;;;15.85;56.57;101156.88;5020173;28;9318;-60
2022/05/11 02:24:49;;;;;;;;;1.00;1.00;;;;;15.84;56.61;101147.91;5023921;28;9320;-60
2022/05/11 02:27:16;;;;;;;;;3.00;3.00;;;;;15.86;56.59;101137.63;5023737;28;9290;-63
2022/05/11 02:29:43;;;;;;;;;2.00;2.00;;;;;15.81;56.56;101145.63;4993066;28;9370;-62
2022/05/11 02:32:09;;;;;;;;;3.00;3.00;;;;;15.80;56.88;101144.78;5019262;28;9372;-63
2022/05/11 02:37:20;;;;;;;;;6.75;4.25;;;;;15.80;56.86;101131.22;5017065;28;10108;-59
2022/05/11 02:39:48;;;;;;;;;3.67;3.67;;;;;15.81;56.94;101130.16;4995284;28;9501;-62
2022/05/11 02:42:17;;;;;;;;;6.00;5.00;;;;;15.79;56.80;101124.09;5017035;28;9506;-62
2022/05/11 02:44:43;;;;;;;;;3.33;2.33;;;;;15.75;56.60;101122.06;5031064;28;9152;-64
2022/05/11 02:47:10;;;;;;;;;3.00;3.00;;;;;15.76;56.80;101119.16;5012260;28;9266;-65
2022/05/11 02:49:36;;;;;;;;;1.67;1.67;;;;;15.79;56.86;101121.41;5009660;28;9364;-64
2022/05/11 02:52:03;;;;;;;;;3.00;3.00;;;;;15.79;56.98;101121.41;5014737;28;9294;-64
2022/05/11 02:54:30;;;;;;;;;2.00;2.00;;;;;15.81;57.04;101123.91;5014568;28;9307;-65
2022/05/11 02:56:56;;;;;;;;;1.67;1.67;;;;;15.80;56.94;101119.53;5014244;28;9372;-63
2022/05/11 02:59:23;;;;;;;;;2.50;2.50;;;;;15.79;56.93;101115.13;5013480;28;9322;-63
2022/05/11 03:01:51;;;;;;;;;2.00;2.00;;;;;15.79;57.13;101115.13;5015521;28;9508;-64
2022/05/11 03:04:19;;;;;;;;;2.00;2.00;;;;;15.77;56.90;101109.13;5022663;28;9460;-65
2022/05/11 03:06:47;;;;;;;;;2.00;2.00;;;;;15.78;57.20;101114.31;5020643;28;9244;-63
2022/05/11 03:09:15;;;;;;;;;3.75;3.75;;;;;15.79;57.00;101120.56;5007919;28;9366;-62
2022/05/11 03:11:43;;;;;;;;;4.00;3.00;;;;;15.76;57.13;101107.47;5011119;28;9526;-64
2022/05/11 03:14:10;;;;;;;;;3.00;3.00;;;;;15.76;57.13;101104.75;5008731;28;11261;-64
2022/05/11 03:16:38;;;;;;;;;2.00;2.00;;;;;15.78;56.86;101108.06;5017592;28;9313;-65
2022/05/11 03:19:05;;;;;;;;;5.33;2.33;;;;;15.79;56.74;101109.72;5019625;28;9320;-64
2022/05/11 03:21:33;;;;;;;;;1.67;1.67;;;;;15.77;56.99;101112.66;5023165;28;9292;-62
2022/05/11 03:24:00;;;;;;;;;6.75;4.75;;;;;15.76;57.04;101100.16;5011037;28;9316;-64
2022/05/11 03:26:27;;;;;;;;;5.33;3.00;;;;;15.74;57.09;101102.25;5019303;28;9449;-65
2022/05/11 03:28:53;;;;;;;;;5.00;3.67;;;;;15.72;57.07;101096.22;5004863;28;9241;-64
2022/05/11 03:31:20;;;;;;;;;3.00;3.00;;;;;15.72;57.33;101098.94;5016740;28;9356;-62
2022/05/11 03:36:32;;;;;;;;;4.33;3.00;;;;;15.66;57.23;101091.66;5018853;28;9217;-64
2022/05/11 03:38:58;;;;;;;;;2.67;2.67;;;;;15.64;57.40;101090.19;5022215;28;9252;-64
2022/05/11 03:41:25;;;;;;;;;3.00;3.00;;;;;15.64;56.97;101085.59;5019876;28;9224;-65
2022/05/11 03:43:51;;;;;;;;;7.33;5.00;;;;;15.64;57.25;101096.47;5011514;28;9177;-64
2022/05/11 03:46:18;;;;;;;;;3.00;3.00;;;;;15.64;57.23;101091.03;5019325;28;9985;-64
2022/05/11 03:48:44;;;;;;;;;3.00;2.67;;;;;15.63;56.91;101094.78;4994929;28;9290;-64
2022/05/11 03:51:11;;;;;;;;;2.67;2.33;;;;;15.65;56.93;101081.88;5015730;28;9541;-63
2022/05/11 03:53:38;;;;;;;;;6.00;4.67;;;;;15.64;56.85;101074.75;5022024;28;10018;-64
2022/05/11 03:56:04;;;;;;;;;3.67;3.67;;;;;15.63;56.80;101074.97;5015831;28;9359;-62
2022/05/11 03:58:31;;;;;;;;;2.00;2.00;;;;;15.61;56.99;101074.38;5018131;28;9222;-63
2022/05/11 04:00:58;;;;;;;;;2.33;2.33;;;;;15.61;56.68;101061.63;5006371;28;9241;-65
2022/05/11 04:03:24;;;;;;;;;3.00;3.00;;;;;15.60;56.90;101062.69;5008429;28;9410;-65
2022/05/11 04:05:51;;;;;;;;;2.00;1.33;;;;;15.59;56.51;101066.44;5008770;28;9352;-63
2022/05/11 04:08:18;;;;;;;;;2.67;2.00;;;;;15.62;56.56;101065.16;5014823;28;9398;-64
2022/05/11 04:10:44;;;;;;;;;2.67;2.67;;;;;15.61;56.68;101061.63;5044713;23;9364;-64
2022/05/11 04:13:11;;;;;;;;;3.33;2.00;;;;;15.59;56.66;101059.13;5043895;28;9363;-64
2022/05/11 04:15:38;;;;;;;;;3.00;2.33;;;;;15.55;56.44;101066.03;5039525;28;9231;-64
2022/05/11 04:18:06;;;;;;;;;2.00;2.00;;;;;15.52;56.25;101061.06;5037645;28;10092;-64
2022/05/11 04:20:32;;;;;;;;;4.67;3.33;;;;;15.54;56.12;101063.56;5043908;28;9397;-63
2022/05/11 04:22:59;;;;;;;;;2.33;2.33;;;;;15.55;56.13;101063.31;5029655;28;9797;-63
2022/05/11 04:25:25;;;;;;;;;2.00;2.00;;;;;15.55;56.37;101059.78;5041839;28;9393;-63
2022/05/11 04:27:52;;;;;;;;;1.67;1.00;;;;;15.53;55.80;101048.34;5043232;28;9255;-65
2022/05/11 04:30:22;;;;;;;;;2.33;1.00;;;;;15.54;55.67;101060.84;5043602;28;9219;-65
2022/05/11 04:32:48;;;;;;;;;1.00;1.00;;;;;15.50;55.53;101059.63;5061801;28;9907;-67
2022/05/11 04:35:15;;;;;;;;;2.67;1.33;;;;;15.49;55.55;101050.66;5050470;28;9305;-64
2022/05/11 04:37:42;;;;;;;;;1.67;1.67;;;;;15.53;55.13;101056.47;5044205;28;9233;-64
2022/05/11 04:40:11;;;;;;;;;1.33;1.00;;;;;15.56;55.08;101058.75;5050964;28;9254;-64
2022/05/11 04:42:43;;;;;;;;;1.00;1.00;;;;;15.56;54.73;101058.75;5044926;28;9162;-64
2022/05/11 04:45:10;;;;;;;;;1.33;1.00;;;;;15.55;54.93;101057.91;5040388;28;9217;-65
2022/05/11 04:47:38;;;;;;;;;1.33;1.00;;;;;15.53;54.67;101061.91;5037264;28;9308;-64
2022/05/11 04:50:05;;;;;;;;;1.00;1.00;;;;;15.51;54.61;101064.00;5037582;28;9069;-64
2022/05/11 04:52:32;;;;;;;;;0.33;0.00;;;;;15.48;54.29;101053.59;5044467;28;9155;-65
2022/05/11 04:54:59;;;;;;;;;1.33;1.33;;;;;15.46;54.46;101055.69;5032550;28;8987;-65
2022/05/11 04:57:25;;;;;;;;;2.00;1.00;;;;;15.45;54.46;101051.31;5049217;28;9256;-65
2022/05/11 04:59:52;;;;;;;;;1.00;0.00;;;;;15.47;54.21;101047.31;5040724;28;9310;-65
2022/05/11 05:02:21;;;;;;;;;2.67;0.67;;;;;15.50;54.41;101051.47;5046034;28;9125;-64
2022/05/11 05:04:49;;;;;;;;;1.00;1.00;;;;;15.51;54.13;101059.38;5025210;28;9162;-65
2022/05/11 05:07:16;;;;;;;;;1.00;1.00;;;;;15.55;54.09;101059.78;5043746;28;9779;-64
2022/05/11 05:09:43;;;;;;;;;2.67;1.00;;;;;15.56;54.16;101056.88;5032753;28;9179;-65
2022/05/11 05:12:11;;;;;;;;;1.00;1.00;;;;;15.55;53.94;101055.19;5032784;28;9281;-65
2022/05/11 05:14:38;;;;;;;;;1.00;1.00;;;;;15.53;54.09;101051.88;5030186;28;9107;-64
2022/05/11 05:17:07;;;;;;;;;0.00;0.00;;;;;15.55;53.74;101051.63;5040604;28;9049;-65
2022/05/11 05:19:36;;;;;;;;;0.00;0.00;;;;;15.59;53.82;101064.53;5042910;28;9079;-64
2022/05/11 05:22:03;;;;;;;;;4.33;1.00;;;;;15.59;53.71;101061.00;5045604;28;10033;-64
2022/05/11 05:24:30;;;;;;;;;1.00;1.00;;;;;15.59;53.64;101061.81;5041453;28;9075;-65
2022/05/11 05:26:57;;;;;;;;;0.67;0.00;;;;;15.62;53.35;101063.28;5039561;28;9273;-65
2022/05/11 05:32:10;;;;;;;;;0.33;0.33;;;;;15.58;53.48;101070.19;5045882;28;9154;-64
2022/05/11 05:34:36;;;;;;;;;0.00;0.00;;;;;15.59;53.49;101069.13;5040426;28;9150;-64
2022/05/11 05:37:03;;;;;;;;;2.00;1.00;;;;;15.60;53.45;101065.41;5031481;28;9079;-65
2022/05/11 05:39:30;;;;;;;;;1.67;1.00;;;;;15.59;53.09;101064.53;5028525;28;9203;-64
2022/05/11 05:41:56;;;;;;;;;1.00;1.00;;;;;15.60;53.19;101065.41;5029494;28;9143;-64
2022/05/11 05:44:29;;;;;;;;;0.00;0.00;;;;;15.63;53.23;101070.34;5027317;28;8998;-64
2022/05/11 05:47:01;;;;;;;;;0.00;0.00;;;;;15.65;52.84;101064.75;5031223;28;9808;-65
2022/05/11 05:49:28;;;;;;;;;1.00;1.00;;;;;15.64;52.78;101066.63;5043833;28;9173;-64
2022/05/11 05:51:55;;;;;;;;;1.33;0.33;;;;;15.65;52.85;101057.44;5035300;28;9176;-64
2022/05/11 05:54:21;;;;;;;;;0.00;0.00;;;;;15.69;52.77;101060.53;5035378;28;9185;-66
2022/05/11 05:56:47;;;;;;;;;1.00;1.00;;;;;15.77;53.02;101066.53;5019879;28;8944;-65
2022/05/11 05:59:14;;;;;;;;;0.00;0.00;;;;;15.74;52.79;101064.25;5022448;28;9085;-65
2022/05/11 06:01:41;;;;;;;;;1.00;1.00;;;;;15.76;52.86;101056.72;5027039;28;9093;-63
2022/05/11 06:04:07;;;;;;;;;2.00;0.67;;;;;15.84;52.88;101055.59;5029400;28;9068;-64
2022/05/11 06:06:34;;;;;;;;;0.00;0.00;;;;;15.89;52.56;101060.38;5030765;28;9067;-64
2022/05/11 06:09:01;;;;;;;;;1.00;0.33;;;;;15.91;52.51;101060.94;5031517;28;8944;-64
2022/05/11 06:11:27;;;;;;;;;1.00;1.00;;;;;15.90;52.52;101056.59;5029940;28;9096;-64
2022/05/11 06:13:54;;;;;;;;;0.33;0.00;;;;;15.92;52.50;101063.47;5031787;28;9152;-64
2022/05/11 06:16:21;;;;;;;;;0.00;0.00;;;;;15.94;52.91;101060.50;5031131;28;9174;-64
2022/05/11 06:18:48;;;;;;;;;1.00;1.00;;;;;15.97;52.61;101060.91;5030966;28;9113;-66
2022/05/11 06:21:15;;;;;;;;;0.00;0.00;;;;;16.00;52.72;101062.31;5030627;28;9068;-64
2022/05/11 06:23:41;;;;;;;;;0.00;0.00;;;;;15.98;52.68;101065.25;5036318;28;9019;-64
2022/05/11 06:26:12;;;;;;;;;0.00;0.00;;;;;16.08;52.87;101072.88;5038416;28;9061;-65
2022/05/11 06:28:40;;;;;;;;;2.00;0.00;;;;;16.14;52.56;101066.56;5030873;28;9000;-65
2022/05/11 06:31:17;;;;;;;;;1.00;1.00;;;;;16.14;52.44;101058.41;5029165;28;9046;-64
2022/05/11 06:33:46;;;;;;;;;1.00;1.00;;;;;16.21;52.64;101064.59;5040869;28;9072;-64
2022/05/11 06:36:13;;;;;;;;;0.00;0.00;;;;;16.27;52.92;101058.25;5047048;28;8994;-64
2022/05/11 06:38:39;;;;;;;;;0.00;0.00;;;;;16.32;52.70;101060.28;5050497;28;8989;-64
2022/05/11 06:41:11;;;;;;;;;1.00;1.00;;;;;16.32;52.71;101058.41;5045764;28;9732;-65
2022/05/11 06:43:37;;;;;;;;;0.00;0.00;;;;;16.19;52.22;101060.44;5040783;28;9063;-64
2022/05/11 06:46:04;;;;;;;;;0.33;0.00;;;;;16.21;52.37;101070.03;5032307;28;9411;-64
2022/05/11 06:48:31;;;;;;;;;2.67;1.00;;;;;16.18;52.27;101059.63;5040793;28;9007;-64
2022/05/11 06:50:58;;;;;;;;;0.00;0.00;;;;;16.21;52.64;101056.47;5047034;28;9232;-64
2022/05/11 06:53:25;;;;;;;;;1.33;0.33;;;;;16.31;52.77;101056.75;5037189;28;8925;-65
2022/05/11 07:01:22;;;;;;;;;1.00;1.00;;;;;16.40;52.61;101053.72;5026960;28;8932;-64
2022/05/11 07:03:48;;;;;;;;;0.00;0.00;;;;;16.39;52.68;101063.75;5030958;28;8912;-64
2022/05/11 07:06:15;;;;;;;;;1.33;0.67;;;;;16.33;53.34;101059.25;5041136;28;8988;-64
2022/05/11 07:08:44;;;;;;;;;2.67;2.00;;;;;16.33;53.36;101061.97;5028762;28;9184;-64
2022/05/11 07:13:57;;;;;;;;;2.00;1.00;;;;;16.32;53.49;101055.69;5025324;28;9078;-64
2022/05/11 07:16:25;;;;;;;;;0.50;0.25;;;;;16.25;53.28;101065.81;5032957;28;8974;-65
2022/05/11 07:18:53;;;;;;;;;0.25;0.25;;;;;16.27;53.50;101052.00;5028425;28;8841;-65
2022/05/11 07:21:19;;;;;;;;;1.33;1.00;;;;;16.30;53.54;101049.66;5033459;28;8880;-65
2022/05/11 07:23:46;;;;;;;;;0.00;0.00;;;;;16.22;53.29;101049.97;5052088;28;9019;-65
2022/05/11 07:26:12;;;;;;;;;2.00;2.00;;;;;16.22;53.74;101044.53;5040659;28;9712;-65
2022/05/11 07:28:40;;;;;;;;;2.00;1.00;;;;;16.27;53.47;101041.97;5038387;28;9072;-65
2022/05/11 07:31:07;;;;;;;;;0.00;0.00;;;;;16.26;52.74;101034.88;5037513;28;9166;-64
2022/05/11 07:33:34;;;;;;;;;2.00;1.00;;;;;16.16;52.75;101031.84;5025517;28;9030;-65
2022/05/11 07:36:00;;;;;;;;;2.00;1.00;;;;;16.19;53.18;101036.00;5026185;28;9181;-65
2022/05/11 07:38:27;;;;;;;;;1.00;0.67;;;;;16.30;52.48;101030.66;5040633;28;8994;-64
2022/05/11 07:40:53;;;;;;;;;1.67;0.00;;;;;16.53;52.22;101034.56;5027726;28;9078;-64
2022/05/11 07:43:20;;;;;;;;;2.00;1.00;;;;;16.72;52.25;101048.94;5029291;28;8946;-64
2022/05/11 07:45:47;;;;;;;;;0.00;0.00;;;;;16.86;51.89;101041.47;5028755;28;8991;-64
2022/05/11 07:48:13;;;;;;;;;0.50;0.50;;;;;16.89;51.15;101039.09;5039405;28;8989;-64
2022/05/11 07:50:40;;;;;;;;;1.67;1.00;;;;;16.80;51.16;101049.47;5041666;28;8852;-64
2022/05/11 07:53:06;;;;;;;;;0.00;0.00;;;;;16.78;51.21;101051.59;5042507;28;8943;-64
2022/05/11 07:55:34;;;;;;;;;1.50;1.00;;;;;16.78;51.51;101032.56;5036648;28;8988;-64
2022/05/11 08:00:46;;;;;;;;;0.00;0.00;;;;;16.88;52.13;101039.31;5036878;28;8908;-64
2022/05/11 08:03:12;;;;;;;;;1.00;1.00;;;;;16.93;52.39;101045.72;5041182;28;8856;-64
2022/05/11 08:05:39;;;;;;;;;0.00;0.00;;;;;17.04;52.25;101052.28;5039798;28;8844;-64
2022/05/11 08:08:07;;;;;;;;;2.75;2.25;;;;;17.00;52.20;101048.34;5035545;28;8935;-64
2022/05/11 08:10:38;;;;;;;;;1.00;1.00;;;;;16.98;52.67;101048.59;5029765;28;8841;-64
2022/05/11 08:13:07;;;;;;;;;1.00;1.00;;;;;17.01;52.84;101052.72;5032700;28;8919;-65
2022/05/11 08:15:37;;;;;;;;;0.75;0.00;;;;;16.99;52.48;101050.25;5032589;28;8956;-64
2022/05/11 08:18:05;;;;;;;;;0.75;0.25;;;;;16.97;52.96;101041.47;5038790;28;8926;-65
2022/05/11 08:20:42;;;;;;;;;2.33;1.00;;;;;17.00;53.06;101048.34;5032094;28;8844;-65
2022/05/11 08:23:09;;;;;;;;;1.00;1.00;;;;;16.99;52.73;101039.38;5031600;28;8985;-65
2022/05/11 08:25:38;;;;;;;;;1.00;1.00;;;;;17.06;53.22;101044.72;5040332;28;8794;-65
2022/05/11 08:28:14;;;;;;;;;1.00;1.00;;;;;17.13;53.00;101055.47;5037348;28;8833;-65
2022/05/11 08:33:29;;;;;;;;;1.00;1.00;;;;;17.22;53.16;101062.28;5031471;28;8933;-64
2022/05/11 08:36:21;;;;;;;;;1.33;1.33;;;;;17.18;52.70;101058.34;5031668;28;8828;-64
2022/05/11 08:38:51;;;;;;;;;3.00;0.67;;;;;17.16;53.03;101061.28;5031310;28;8934;-65
2022/05/11 08:41:32;;;;;;;;;1.50;1.50;;;;;17.08;53.61;101055.34;5030412;28;8910;-65
2022/05/11 08:44:07;;;;;;;;;1.00;1.00;;;;;17.09;53.89;101066.00;5030779;28;8832;-65
2022/05/11 08:47:04;;;;;;;;;1.00;1.00;;;;;17.10;53.74;101062.25;5035872;28;8937;-65
2022/05/11 08:49:53;;;;;;;;;1.50;1.50;;;;;17.04;53.45;101055.81;5025755;28;8868;-64
2022/05/11 08:53:02;;;;;;;;;1.67;1.67;;;;;17.05;54.05;101059.38;5044543;28;8848;-65
2022/05/11 08:55:48;;;;;;;;;2.00;2.00;;;;;17.10;53.91;101055.97;5029185;28;8917;-65
2022/05/11 08:58:35;;;;;;;;;4.33;1.00;;;;;17.20;54.15;101054.31;5035799;28;8982;-66
2022/05/11 09:01:04;;;;;;;;;5.00;3.00;;;;;17.23;53.80;101048.44;5034662;28;8969;-65
2022/05/11 09:03:44;;;;;;;;;2.67;1.33;;;;;17.26;53.66;101049.88;5053102;28;8930;-65
2022/05/11 09:06:19;;;;;;;;;1.00;1.00;;;;;17.38;53.24;101044.41;5032130;28;8916;-65
2022/05/11 09:08:46;;;;;;;;;2.50;1.50;;;;;17.47;52.61;101051.19;5027912;28;8824;-65
2022/05/11 09:11:21;;;;;;;;;2.50;1.00;;;;;17.59;52.37;101053.94;5033731;28;9559;-66
2022/05/11 09:13:48;;;;;;;;;2.25;1.50;;;;;17.69;51.98;101046.81;5046979;28;8821;-60
2022/05/11 09:16:24;;;;;;;;;1.25;1.00;;;;;17.85;51.81;101041.75;5026496;28;8820;-66
2022/05/11 09:18:50;;;;;;;;;0.25;0.25;;;;;18.02;51.81;101042.69;5028565;28;8806;-65
2022/05/11 09:21:20;;;;;;;;;3.00;2.00;;;;;18.15;51.12;101050.63;5042469;28;8872;-66
2022/05/11 09:24:08;;;;;;;;;2.50;2.50;;;;;18.22;50.53;101043.13;5025375;28;8810;-66
2022/05/11 09:26:38;;;;;;;;;2.00;2.00;;;;;18.20;50.03;101041.72;5021020;28;8824;-66
2022/05/11 09:29:19;;;;;;;;;3.25;3.00;;;;;18.17;50.50;101047.66;5043701;28;9591;-66
2022/05/11 09:31:51;;;;;;;;;3.00;1.00;;;;;18.16;50.21;101049.56;5027161;28;8883;-66
2022/05/11 09:34:36;;;;;;;;;2.75;2.75;;;;;18.15;49.46;101058.81;5025554;28;8925;-65
2022/05/11 09:37:19;;;;;;;;;1.75;1.75;;;;;18.15;49.44;101050.63;5026339;28;8859;-66
2022/05/11 09:39:53;;;;;;;;;3.50;2.00;;;;;18.28;49.59;101046.81;5026573;28;8833;-65
2022/05/11 09:42:27;;;;;;;;;4.50;2.25;;;;;18.41;49.70;101059.34;5024676;28;8868;-65
2022/05/11 09:44:54;;;;;;;;;3.75;3.00;;;;;18.46;49.42;101059.44;5026909;28;8858;-65
2022/05/11 09:47:27;;;;;;;;;1.50;1.50;;;;;18.49;49.28;101065.22;5026882;28;8824;-65
2022/05/11 09:50:17;;;;;;;;;3.25;2.00;;;;;18.45;48.99;101055.06;5026298;28;8856;-66
2022/05/11 09:52:45;;;;;;;;;2.00;2.00;;;;;18.52;49.29;101066.66;5022395;28;9546;-65
2022/05/11 09:55:28;;;;;;;;;0.75;0.75;;;;;18.60;48.69;101058.09;5024223;28;9550;-66
2022/05/11 09:57:59;;;;;;;;;2.00;2.00;;;;;18.72;48.63;101055.38;5025929;28;8840;-65
2022/05/11 10:00:40;;;;;;;;;1.50;1.50;;;;;18.83;48.05;101059.91;5027880;28;8849;-65
2022/05/11 10:03:21;;;;;;;;;1.75;1.75;;;;;18.83;47.45;101053.63;5026438;28;8832;-65
2022/05/11 10:05:51;;;;;;;;;2.00;2.00;;;;;18.86;47.11;101051.25;5025061;28;8843;-66
2022/05/11 10:08:35;;;;;;;;;3.00;1.25;;;;;18.79;45.96;101053.28;5024551;28;8833;-65
2022/05/11 10:11:16;;;;;;;;;2.50;1.00;;;;;18.74;45.50;101056.75;5027568;28;8836;-66
2022/05/11 10:14:00;;;;;;;;;1.75;0.75;;;;;18.75;45.81;101058.41;5026328;28;8982;-66
2022/05/11 10:22:53;;;;;;;;;1.75;1.75;;;;;19.11;46.25;101050.88;5026105;28;8832;-66
2022/05/11 10:25:31;;;;;;;;;0.25;0.25;;;;;19.26;46.93;101051.16;5027256;28;9507;-66
2022/05/11 10:28:27;;;;;;;;;1.75;1.00;;;;;19.29;46.60;101059.94;5026245;28;8840;-66
2022/05/11 10:31:06;;;;;;;;;3.50;2.00;;;;;19.13;47.14;101061.56;5029615;28;8836;-65
2022/05/11 10:33:46;;;;;;;;;2.25;2.25;;;;;18.90;48.14;101063.34;5024286;28;8840;-66
2022/05/11 10:36:36;;;;;;;;;2.75;2.00;;;;;18.69;49.47;101064.81;5035609;28;8852;-65
2022/05/11 10:39:48;;;;;;;;;3.50;3.00;;;;;18.64;49.48;101059.28;5029701;28;9535;-66
2022/05/11 10:42:33;;;;;;;;;2.00;2.00;;;;;18.63;50.01;101056.78;5029096;28;8829;-65
2022/05/11 10:45:10;;;;;;;;;3.00;2.00;;;;;18.68;50.33;101051.44;5036129;28;8836;-65
2022/05/11 10:48:11;;;;;;;;;6.25;3.00;;;;;18.71;50.30;101049.06;5026877;28;8811;-65
2022/05/11 10:50:48;;;;;;;;;1.00;1.00;;;;;18.70;50.04;101052.88;5010899;28;8835;-65
2022/05/11 10:53:33;;;;;;;;;6.25;3.25;;;;;18.52;49.56;101056.59;5010960;28;8823;-65
2022/05/11 10:56:25;;;;;;;;;7.00;2.00;;;;;18.53;49.56;101055.50;5017503;28;8906;-65
2022/05/11 10:59:06;;;;;;;;;2.25;2.25;;;;;18.62;48.75;101053.22;5031383;28;8884;-66
2022/05/11 11:01:58;;;;;;;;;1.00;1.00;;;;;18.66;47.88;101046.22;5037178;28;8837;-65
2022/05/11 11:04:49;;;;;;;;;4.75;3.00;;;;;18.65;47.82;101047.28;5037893;28;8846;-66
2022/05/11 11:07:22;;;;;;;;;2.25;2.00;;;;;18.66;48.38;101048.94;5046574;28;8876;-65
2022/05/11 11:10:00;;;;;;;;;2.00;2.00;;;;;18.83;47.90;101049.00;5064475;28;8849;-66
2022/05/11 11:12:54;;;;;;;;;1.00;1.00;;;;;19.06;47.62;101044.53;5037397;28;8810;-66
2022/05/11 11:15:26;;;;;;;;;1.00;1.00;;;;;19.18;46.73;101054.28;5046337;28;8825;-66
2022/05/11 11:17:55;;;;;;;;;3.00;2.75;;;;;19.31;46.87;101041.41;5043097;28;8869;-66
2022/05/11 11:20:23;;;;;;;;;1.00;1.00;;;;;19.26;46.58;101034.78;5041877;28;8907;-65
2022/05/11 11:23:06;;;;;;;;;4.00;2.50;;;;;19.28;46.07;101034.53;5050172;28;8828;-66
2022/05/11 11:25:53;;;;;;;;;1.75;1.00;;;;;19.31;45.44;101034.03;5042700;28;9531;-66
2022/05/11 11:28:23;;;;;;;;;2.25;1.75;;;;;19.29;44.56;101032.66;5041279;28;8829;-66
2022/05/11 11:30:59;;;;;;;;;1.75;1.00;;;;;19.27;44.58;101033.72;5048129;28;8891;-65
2022/05/11 11:33:31;;;;;;;;;3.00;1.00;;;;;19.23;44.52;101027.09;5031913;28;8828;-65
2022/05/11 11:35:57;;;;;;;;;2.00;1.75;;;;;19.25;45.18;101024.94;5036930;28;8813;-66
2022/05/11 11:38:47;;;;;;;;;2.00;2.00;;;;;19.40;44.83;101018.91;5049183;28;8840;-65
2022/05/11 11:41:20;;;;;;;;;0.00;0.00;;;;;19.54;45.36;101024.88;5045757;28;8856;-65
2022/05/11 11:44:30;;;;;;;;;1.00;1.00;;;;;19.52;44.67;101029.72;5054070;28;8806;-65
2022/05/11 11:46:59;;;;;;;;;2.25;1.25;;;;;19.46;44.26;101014.38;5045227;28;8904;-65
2022/05/11 11:49:28;;;;;;;;;1.00;1.00;;;;;19.42;44.69;101018.66;5045405;28;9508;-66
2022/05/11 11:51:58;;;;;;;;;1.25;0.75;;;;;19.59;43.87;101015.91;5053590;28;8826;-65
2022/05/11 11:54:48;;;;;;;;;3.00;1.00;;;;;19.83;43.38;101013.84;5042595;28;9310;-65
2022/05/11 11:57:34;;;;;;;;;0.00;0.00;;;;;19.92;42.75;101013.16;5045112;28;8825;-65
2022/05/11 12:00:25;;;;;;;;;3.00;1.00;;;;;19.90;42.19;101004.41;5053619;28;8810;-65
2022/05/11 12:02:54;;;;;;;;;1.25;1.00;;;;;19.84;41.99;101008.13;5039370;28;8842;-65
2022/05/11 12:05:32;;;;;;;;;1.00;0.75;;;;;19.81;42.32;101003.19;5014313;28;8811;-64
2022/05/11 12:16:58;;;;;;;;;1.75;1.00;;;;;19.74;43.40;101016.19;5033711;28;9504;-65
2022/05/11 12:19:30;;;;;;;;;1.25;1.25;;;;;19.80;43.03;101030.72;5033590;28;8856;-64
2022/05/11 12:21:58;;;;;;;;;3.50;2.50;;;;;19.79;43.38;101029.91;5038266;28;8817;-64
2022/05/11 12:24:31;;;;;;;;;1.00;0.50;;;;;19.69;41.74;101025.13;5036911;28;8819;-65
2022/05/11 12:27:01;;;;;;;;;2.00;0.00;;;;;19.61;41.92;101027.44;5013482;28;8823;-64
2022/05/11 12:32:32;;;;;;;;;1.25;0.50;;;;;19.66;41.62;101025.63;5013199;28;8835;-64
2022/05/11 12:35:27;;;;;;;;;0.25;0.25;;;;;19.72;41.15;101021.88;5017073;28;8844;-65
2022/05/11 12:38:24;;;;;;;;;1.75;0.00;;;;;19.80;41.17;101019.81;5042751;28;8814;-65
2022/05/11 12:40:52;;;;;;;;;1.00;1.00;;;;;19.86;40.11;101018.81;5039973;28;8836;-65
2022/05/11 12:43:25;;;;;;;;;1.00;1.00;;;;;19.90;39.99;101018.06;5040650;28;8824;-65